createdAt,value
2019-05-28T00:02:40.602Z,99154.52
2019-05-28T00:07:46.710Z,99141.09
2019-05-28T00:12:51.786Z,99134.97
2019-05-28T00:17:56.986Z,99132.34
2019-05-28T00:23:02.019Z,99112.44
2019-05-28T00:28:07.322Z,99115.56
2019-05-28T00:33:12.430Z,99112.75
2019-05-28T00:38:17.474Z,99104.08
2019-05-28T00:43:22.822Z,99099.24
2019-05-28T00:48:27.816Z,99100.19
2019-05-28T00:53:32.862Z,99092.77
2019-05-28T00:58:38.787Z,99100.11
2019-05-28T01:03:43.826Z,99093.27
2019-05-28T01:08:48.869Z,99091.20
2019-05-28T01:13:53.946Z,99090.69
2019-05-28T01:18:59.952Z,99086.70
2019-05-28T01:24:05.344Z,99082.27
2019-05-28T01:29:10.686Z,99080.81
2019-05-28T01:34:15.681Z,99078.55
2019-05-28T01:39:20.903Z,99073.16
2019-05-28T01:44:26.415Z,99065.96
2019-05-28T01:49:31.446Z,99061.03
2019-05-28T01:54:36.467Z,99059.55
2019-05-28T01:59:41.486Z,99049.60
2019-05-28T02:04:46.528Z,99043.72
2019-05-28T02:09:51.583Z,99045.29
2019-05-28T02:14:57.065Z,99045.02
2019-05-28T02:20:04.904Z,99046.77
2019-05-28T02:25:11.505Z,99046.55
2019-05-28T02:30:16.839Z,99041.66
2019-05-28T02:35:22.092Z,99037.77
2019-05-28T02:40:27.714Z,99041.60
2019-05-28T02:45:32.768Z,99045.80
2019-05-28T02:51:06.517Z,99045.17
2019-05-28T02:56:14.472Z,99043.69
2019-05-28T03:01:20.660Z,99047.38
2019-05-28T03:06:25.753Z,99045.57
2019-05-28T03:11:31.126Z,99048.45
2019-05-28T03:16:40.006Z,99046.34
2019-05-28T03:21:46.659Z,99047.69
2019-05-28T03:26:51.705Z,99045.20
2019-05-28T03:32:08.131Z,99045.88
2019-05-28T03:37:04.163Z,99052.56
2019-05-28T03:42:09.188Z,99053.22
2019-05-28T03:47:14.285Z,99050.08
2019-05-28T03:52:21.601Z,99051.86
2019-05-28T03:57:26.636Z,99050.99
2019-05-28T04:02:31.685Z,99055.36
2019-05-28T04:07:37.144Z,99061.13
2019-05-28T04:12:42.174Z,99062.37
2019-05-28T04:17:47.209Z,99063.93
2019-05-28T04:22:52.282Z,99074.22
2019-05-28T04:27:57.412Z,99072.20
2019-05-28T04:33:02.628Z,99076.23
2019-05-28T04:38:07.664Z,99080.02
2019-05-28T04:43:12.777Z,99077.78
2019-05-28T04:48:17.923Z,99078.80
2019-05-28T04:53:23.418Z,99089.19
2019-05-28T04:58:28.491Z,99089.38
2019-05-28T05:03:33.573Z,99086.59
2019-05-28T05:08:38.756Z,99080.07
2019-05-28T05:13:43.824Z,99088.09
2019-05-28T05:18:49.026Z,99104.16
2019-05-28T05:23:54.128Z,99106.91
2019-05-28T05:28:59.808Z,99106.14
2019-05-28T05:34:04.826Z,99110.38
2019-05-28T05:39:09.976Z,99103.47
2019-05-28T05:44:15.326Z,99104.81
2019-05-28T05:49:21.075Z,99102.48
2019-05-28T05:54:26.169Z,99100.61
2019-05-28T05:59:31.239Z,99110.39
2019-05-28T06:04:36.328Z,99110.73
2019-05-28T06:09:41.373Z,99112.82
2019-05-28T06:14:46.406Z,99112.82
2019-05-28T06:19:51.508Z,99120.39
2019-05-28T06:24:56.949Z,99121.27
2019-05-28T06:30:02.332Z,99123.81
2019-05-28T06:35:10.150Z,99131.61
2019-05-28T06:40:15.327Z,99135.92
2019-05-28T06:45:20.428Z,99137.84
2019-05-28T06:50:25.577Z,99134.80
2019-05-28T06:55:30.628Z,99122.40
2019-05-28T07:00:35.701Z,99124.33
2019-05-28T07:05:40.817Z,99132.61
2019-05-28T07:10:57.177Z,99133.23
2019-05-28T07:15:52.738Z,99136.11
2019-05-28T07:20:57.877Z,99131.52
2019-05-28T07:26:02.917Z,99118.73
2019-05-28T07:31:07.953Z,99125.84
2019-05-28T07:36:13.367Z,99137.12
2019-05-28T07:41:19.574Z,99143.91
2019-05-28T07:46:24.831Z,99148.90
2019-05-28T07:51:29.878Z,99153.23
2019-05-28T07:56:35.008Z,99148.19
2019-05-28T08:01:40.117Z,99146.59
2019-05-28T08:06:54.785Z,99144.39
2019-05-28T08:11:52.435Z,99145.67
2019-05-28T08:16:57.454Z,99149.98
2019-05-28T08:22:02.619Z,99157.90
2019-05-28T08:27:07.694Z,99149.45
2019-05-28T08:32:12.694Z,99158.00
2019-05-28T08:37:17.770Z,99159.53
2019-05-28T08:42:25.917Z,99164.72
2019-05-28T08:47:31.041Z,99163.64
2019-05-28T08:52:36.519Z,99158.69
2019-05-28T08:57:42.691Z,99160.88
2019-05-28T09:02:47.749Z,99164.68
2019-05-28T09:07:52.808Z,99167.38
2019-05-28T09:12:58.140Z,99173.98
2019-05-28T09:18:04.537Z,99174.83
2019-05-28T09:23:09.800Z,99172.86
2019-05-28T09:28:29.413Z,99171.95
2019-05-28T09:33:22.107Z,99170.91
2019-05-28T09:38:27.227Z,99177.98
2019-05-28T09:43:32.305Z,99173.42
2019-05-28T09:48:37.393Z,99181.28
2019-05-28T09:53:42.491Z,99173.77
2019-05-28T09:58:47.649Z,99175.25
2019-05-28T10:03:52.702Z,99183.04
2019-05-28T10:08:57.894Z,99185.94
2019-05-28T10:14:02.970Z,99188.42
2019-05-28T10:19:08.188Z,99194.78
2019-05-28T10:24:13.377Z,99193.27
2019-05-28T10:29:18.472Z,99201.34
2019-05-28T10:34:23.642Z,99209.66
2019-05-28T10:39:28.734Z,99208.97
2019-05-28T10:44:33.833Z,99211.01
2019-05-28T10:49:38.944Z,99210.31
2019-05-28T10:54:44.107Z,99213.21
2019-05-28T10:59:49.177Z,99212.50
2019-05-28T11:04:54.325Z,99209.59
2019-05-28T11:09:59.562Z,99195.52
2019-05-28T11:15:05.492Z,99197.62
2019-05-28T11:20:11.060Z,99197.38
2019-05-28T11:25:16.199Z,99205.45
2019-05-28T11:30:21.370Z,99197.11
2019-05-28T11:35:26.640Z,99199.00
2019-05-28T11:40:32.043Z,99199.52
2019-05-28T11:45:37.143Z,99188.50
2019-05-28T11:50:42.245Z,99191.88
2019-05-28T11:55:47.367Z,99195.06
2019-05-28T12:00:52.749Z,99191.85
2019-05-28T12:05:57.858Z,99191.23
2019-05-28T12:11:03.003Z,99193.20
2019-05-28T12:16:08.123Z,99193.84
2019-05-28T12:21:13.153Z,99189.45
2019-05-28T12:26:18.209Z,99203.81
2019-05-28T12:31:23.233Z,99193.75
2019-05-28T12:36:28.596Z,99201.98
2019-05-28T12:41:33.718Z,99201.34
2019-05-28T12:46:39.083Z,99206.29
2019-05-28T12:51:44.167Z,99208.98
2019-05-28T12:56:50.200Z,99205.83
2019-05-28T13:01:55.242Z,99213.54
2019-05-28T13:07:00.276Z,99206.94
2019-05-28T13:12:05.370Z,99214.13
2019-05-28T13:17:10.564Z,99211.45
2019-05-28T13:22:15.612Z,99213.24
2019-05-28T13:27:21.056Z,99218.13
2019-05-28T13:32:26.258Z,99212.24
2019-05-28T13:37:31.323Z,99223.00
2019-05-28T13:42:36.523Z,99217.27
2019-05-28T13:47:41.555Z,99219.66
2019-05-28T13:52:47.962Z,99218.61
2019-05-28T13:57:52.971Z,99214.86
2019-05-28T14:02:58.264Z,99222.35
2019-05-28T14:08:03.421Z,99225.01
2019-05-28T14:13:08.524Z,99224.45
2019-05-28T14:18:14.513Z,99236.93
2019-05-28T14:23:19.638Z,99234.39
2019-05-28T14:28:24.729Z,99230.20
2019-05-28T14:33:29.752Z,99228.28
2019-05-28T14:38:34.856Z,99240.74
2019-05-28T14:43:40.166Z,99233.92
2019-05-28T14:48:45.787Z,99234.38
2019-05-28T14:53:51.373Z,99240.61
2019-05-28T14:58:56.525Z,99243.73
2019-05-28T15:04:01.641Z,99255.70
2019-05-28T15:09:20.470Z,99258.55
2019-05-28T15:14:15.448Z,99256.55
2019-05-28T15:19:20.563Z,99265.45
2019-05-28T15:24:26.016Z,99272.12
2019-05-28T15:29:31.095Z,99279.86
2019-05-28T15:34:36.187Z,99284.37
2019-05-28T15:39:41.689Z,99281.22
2019-05-28T15:44:46.807Z,99284.64
2019-05-28T15:49:51.916Z,99289.52
2019-05-28T15:54:57.055Z,99295.62
2019-05-28T16:00:02.483Z,99298.58
2019-05-28T16:05:09.161Z,99296.69
2019-05-28T16:10:18.560Z,99301.42
2019-05-28T16:15:23.582Z,99303.70
2019-05-28T16:20:28.704Z,99306.11
2019-05-28T16:25:33.810Z,99310.00
2019-05-28T16:30:39.134Z,99313.92
2019-05-28T16:35:44.228Z,99313.09
2019-05-28T16:40:50.201Z,99315.23
2019-05-28T16:45:55.252Z,99321.89
2019-05-28T16:51:00.667Z,99324.86
2019-05-28T16:56:05.913Z,99331.47
2019-05-28T17:01:22.375Z,99335.34
2019-05-28T17:06:18.220Z,99341.98
2019-05-28T17:11:27.407Z,99345.75
2019-05-28T17:16:30.411Z,99353.47
2019-05-28T17:21:35.561Z,99357.20
2019-05-28T17:26:45.810Z,99361.16
2019-05-28T17:31:50.877Z,99369.54
2019-05-28T17:36:56.318Z,99376.39
2019-05-28T17:42:05.485Z,99381.94
2019-05-28T17:47:12.842Z,99383.20
2019-05-28T17:52:19.607Z,99401.38
2019-05-28T17:57:24.745Z,99402.62
2019-05-28T18:02:29.848Z,99411.48
2019-05-28T18:07:34.947Z,99425.02
2019-05-28T18:12:40.200Z,99442.42
2019-05-28T18:17:46.826Z,99459.83
2019-05-28T18:22:56.149Z,99473.00
2019-05-28T18:28:01.466Z,99498.41
2019-05-28T18:33:06.733Z,99496.97
2019-05-28T18:38:11.889Z,99499.42
2019-05-28T18:43:17.051Z,99507.13
2019-05-28T18:48:22.255Z,99512.98
2019-05-28T18:53:27.686Z,99519.22
2019-05-28T18:58:35.594Z,99528.48
2019-05-28T19:03:39.999Z,99540.74
2019-05-28T19:08:45.217Z,99546.38
2019-05-28T19:13:51.683Z,99556.83
2019-05-28T19:19:00.415Z,99559.90
2019-05-28T19:24:07.239Z,99563.61
2019-05-28T19:29:16.228Z,99574.66
2019-05-28T19:34:23.116Z,99578.00
2019-05-28T19:39:28.518Z,99586.80
2019-05-28T19:44:33.677Z,99593.02
2019-05-28T19:49:39.137Z,99597.91
2019-05-28T19:54:44.415Z,99604.26
2019-05-28T19:59:52.697Z,99608.84
2019-05-28T20:04:59.175Z,99608.50
2019-05-28T20:10:04.625Z,99618.53
2019-05-28T20:15:11.211Z,99622.31
2019-05-28T20:20:18.389Z,99625.65
2019-05-28T20:25:23.564Z,99632.42
2019-05-28T20:30:29.152Z,99640.39
2019-05-28T20:35:34.427Z,99647.00
2019-05-28T20:40:41.562Z,99657.25
2019-05-28T20:45:46.671Z,99662.72
2019-05-28T20:51:05.069Z,99662.36
2019-05-28T20:55:59.573Z,99671.63
2019-05-28T21:01:05.794Z,99667.89
2019-05-28T21:06:10.862Z,99681.85
2019-05-28T21:11:15.878Z,99679.06
2019-05-28T21:16:21.220Z,99685.20
2019-05-28T21:21:26.248Z,99697.05
2019-05-28T21:26:31.731Z,99696.56
2019-05-28T21:31:36.730Z,99709.16
2019-05-28T21:36:42.028Z,99707.67
2019-05-28T21:41:47.067Z,99719.87
2019-05-28T21:46:52.371Z,99724.37
2019-05-28T21:51:58.647Z,99728.54
2019-05-28T21:57:04.953Z,99733.08
2019-05-28T22:02:12.912Z,99741.58
2019-05-28T22:07:19.096Z,99754.86
2019-05-28T22:12:24.128Z,99759.59
2019-05-28T22:17:29.377Z,99767.20
2019-05-28T22:22:34.410Z,99769.03
2019-05-28T22:27:39.447Z,99776.03
2019-05-28T22:32:44.575Z,99773.64
2019-05-28T22:37:49.907Z,99781.76
2019-05-28T22:42:54.962Z,99788.91
2019-05-28T22:48:01.801Z,99798.09
2019-05-28T22:53:08.072Z,99803.81
2019-05-28T22:58:13.321Z,99815.36
2019-05-28T23:03:18.492Z,99818.52
2019-05-28T23:08:23.574Z,99820.34
2019-05-28T23:13:28.604Z,99832.97
2019-05-28T23:18:34.088Z,99836.45
2019-05-28T23:23:39.275Z,99842.01
2019-05-28T23:28:44.268Z,99847.67
2019-05-28T23:33:49.349Z,99847.74
2019-05-28T23:38:54.398Z,99853.81
2019-05-28T23:44:02.280Z,99859.45
2019-05-28T23:49:06.177Z,99878.56
2019-05-28T23:54:12.178Z,99875.74
2019-05-28T23:59:18.057Z,99893.89
